createdAt,value
2022-11-04T00:01:49.547Z,3.43
2022-11-04T00:04:21.341Z,2.13
2022-11-04T00:06:49.642Z,2.80
2022-11-04T00:09:21.769Z,2.33
2022-11-04T00:12:07.970Z,2.60
2022-11-04T00:14:37.398Z,2.60
2022-11-04T00:17:22.056Z,2.13
2022-11-04T00:20:09.821Z,1.90
2022-11-04T00:23:00.131Z,2.47
2022-11-04T00:25:47.389Z,2.13
2022-11-04T00:28:35.386Z,2.83
2022-11-04T00:31:20.355Z,2.50
2022-11-04T00:33:49.119Z,2.37
2022-11-04T00:36:17.678Z,2.30
2022-11-04T00:38:46.147Z,2.70
2022-11-04T00:41:28.390Z,2.40
2022-11-04T00:43:58.757Z,2.70
2022-11-04T00:46:27.428Z,1.43
2022-11-04T00:48:55.600Z,1.90
2022-11-04T00:51:23.957Z,2.37
2022-11-04T00:53:52.937Z,2.27
2022-11-04T00:56:22.337Z,1.90
2022-11-04T00:58:50.557Z,2.10
2022-11-04T01:01:20.146Z,2.10
2022-11-04T01:03:51.435Z,2.40
2022-11-04T01:06:21.394Z,3.47
2022-11-04T01:08:49.986Z,1.97
2022-11-04T01:11:18.116Z,2.37
2022-11-04T01:13:47.479Z,2.13
2022-11-04T01:16:15.587Z,2.03
2022-11-04T01:18:43.687Z,1.83
2022-11-04T01:21:14.600Z,2.20
2022-11-04T01:23:43.907Z,2.00
2022-11-04T01:26:16.082Z,2.27
2022-11-04T01:28:44.352Z,2.47
2022-11-04T01:31:16.274Z,2.37
2022-11-04T01:33:44.632Z,2.17
2022-11-04T01:36:13.079Z,1.67
2022-11-04T01:38:41.520Z,2.37
2022-11-04T01:41:12.906Z,1.80
2022-11-04T01:43:52.848Z,1.80
2022-11-04T01:46:33.996Z,2.63
2022-11-04T01:49:12.492Z,2.10
2022-11-04T01:51:43.203Z,2.00
2022-11-04T01:54:12.455Z,1.93
2022-11-04T01:56:42.270Z,2.07
2022-11-04T01:59:15.106Z,1.83
2022-11-04T02:01:44.907Z,2.27
2022-11-04T02:04:26.310Z,1.57
2022-11-04T02:06:56.837Z,1.83
2022-11-04T02:09:27.928Z,1.87
2022-11-04T02:12:13.668Z,2.20
2022-11-04T02:14:42.655Z,1.70
2022-11-04T02:17:30.612Z,2.00
2022-11-04T02:20:21.556Z,2.20
2022-11-04T02:23:16.672Z,2.30
2022-11-04T02:26:31.680Z,2.23
2022-11-04T02:29:27.303Z,2.00
2022-11-04T02:32:05.554Z,2.00
2022-11-04T02:34:44.290Z,2.10
2022-11-04T02:37:21.451Z,2.20
2022-11-04T02:39:55.854Z,1.83
2022-11-04T02:42:30.639Z,2.20
2022-11-04T02:45:15.351Z,1.90
2022-11-04T02:47:51.777Z,1.30
2022-11-04T02:50:27.071Z,1.80
2022-11-04T02:52:59.310Z,1.73
2022-11-04T02:55:31.126Z,1.97
2022-11-04T02:58:01.574Z,1.53
2022-11-04T03:00:32.587Z,2.13
2022-11-04T03:03:06.948Z,1.90
2022-11-04T03:05:38.186Z,1.67
2022-11-04T03:08:11.936Z,2.50
2022-11-04T03:10:43.596Z,1.97
2022-11-04T03:13:15.441Z,1.97
2022-11-04T03:15:52.030Z,1.50
2022-11-04T03:18:29.249Z,2.17
2022-11-04T03:20:59.860Z,1.73
2022-11-04T03:23:28.059Z,1.53
2022-11-04T03:26:08.435Z,1.83
2022-11-04T03:28:44.686Z,2.00
2022-11-04T03:31:22.757Z,1.60
2022-11-04T03:33:52.781Z,1.90
2022-11-04T03:36:23.525Z,1.60
2022-11-04T03:38:52.177Z,1.77
2022-11-04T03:41:27.719Z,1.47
2022-11-04T03:43:55.701Z,2.17
2022-11-04T03:46:25.360Z,1.67
2022-11-04T03:48:54.274Z,2.13
2022-11-04T03:51:22.295Z,1.43
2022-11-04T03:53:50.599Z,1.57
2022-11-04T03:56:56.142Z,1.50
2022-11-04T03:59:51.130Z,1.50
2022-11-04T04:02:24.242Z,1.80
2022-11-04T04:05:00.082Z,1.70
2022-11-04T04:07:36.005Z,1.90
2022-11-04T04:10:27.764Z,1.60
2022-11-04T04:13:02.220Z,1.60
2022-11-04T04:15:36.995Z,1.77
2022-11-04T04:18:11.705Z,1.30
2022-11-04T04:20:41.995Z,1.83
2022-11-04T04:23:28.627Z,1.40
2022-11-04T04:26:19.587Z,1.30
2022-11-04T04:28:48.509Z,1.80
2022-11-04T04:31:39.056Z,1.97
2022-11-04T04:34:09.905Z,1.67
2022-11-04T04:36:46.650Z,1.63
2022-11-04T04:39:36.427Z,2.00
2022-11-04T04:42:22.831Z,1.97
2022-11-04T04:45:05.988Z,1.50
2022-11-04T04:47:42.927Z,1.50
2022-11-04T04:50:15.220Z,1.30
2022-11-04T04:52:47.701Z,1.37
2022-11-04T04:55:16.775Z,1.50
2022-11-04T04:57:45.032Z,1.60
2022-11-04T05:00:16.900Z,1.50
2022-11-04T05:02:45.194Z,1.50
2022-11-04T05:07:48.545Z,1.90
2022-11-04T05:10:18.612Z,1.50
2022-11-04T05:13:04.138Z,1.87
2022-11-04T05:15:32.939Z,1.67
2022-11-04T05:18:02.680Z,1.70
2022-11-04T05:20:34.004Z,1.27
2022-11-04T05:23:01.943Z,1.03
2022-11-04T05:25:30.016Z,1.43
2022-11-04T05:28:01.790Z,1.30
2022-11-04T05:30:30.330Z,1.17
2022-11-04T05:33:01.637Z,1.30
2022-11-04T05:35:34.584Z,1.13
2022-11-04T05:38:02.748Z,1.80
2022-11-04T05:40:30.703Z,1.20
2022-11-04T05:43:00.202Z,1.07
2022-11-04T05:45:28.942Z,1.40
2022-11-04T05:48:01.107Z,1.37
2022-11-04T05:50:29.602Z,1.67
2022-11-04T05:52:59.745Z,1.10
2022-11-04T05:55:28.423Z,1.43
2022-11-04T05:57:57.692Z,1.60
2022-11-04T06:00:26.072Z,1.77
2022-11-04T06:02:57.003Z,1.50
2022-11-04T06:05:25.164Z,1.47
2022-11-04T06:07:53.225Z,1.33
2022-11-04T06:10:22.925Z,1.57
2022-11-04T06:12:50.885Z,1.50
2022-11-04T06:15:19.042Z,1.10
2022-11-04T06:17:46.974Z,1.20
2022-11-04T06:20:14.944Z,1.33
2022-11-04T06:22:42.919Z,1.90
2022-11-04T06:25:11.273Z,1.60
2022-11-04T06:27:41.193Z,0.90
2022-11-04T06:30:11.615Z,1.50
2022-11-04T06:32:39.681Z,1.20
2022-11-04T06:35:09.164Z,1.30
2022-11-04T06:37:37.772Z,0.90
2022-11-04T06:40:07.536Z,1.53
2022-11-04T06:42:35.490Z,1.00
2022-11-04T06:45:06.075Z,1.20
2022-11-04T06:47:34.031Z,0.97
2022-11-04T06:50:02.047Z,1.33
2022-11-04T06:52:30.060Z,1.00
2022-11-04T06:54:58.025Z,1.07
2022-11-04T06:57:25.981Z,1.13
2022-11-04T06:59:53.962Z,1.40
2022-11-04T07:02:23.478Z,1.57
2022-11-04T07:04:51.792Z,1.37
2022-11-04T07:07:19.918Z,1.50
2022-11-04T07:09:47.851Z,1.13
2022-11-04T07:12:15.887Z,1.10
2022-11-04T07:14:43.900Z,1.07
2022-11-04T07:17:11.873Z,1.40
2022-11-04T07:19:41.151Z,1.20
2022-11-04T07:22:09.246Z,1.17
2022-11-04T07:24:37.205Z,1.40
2022-11-04T07:27:06.549Z,1.20
2022-11-04T07:29:34.650Z,1.37
2022-11-04T07:32:02.653Z,1.10
2022-11-04T07:34:30.677Z,0.93
2022-11-04T07:36:59.964Z,1.37
2022-11-04T07:39:27.905Z,1.53
2022-11-04T07:41:59.453Z,1.40
2022-11-04T07:44:27.983Z,1.50
2022-11-04T07:46:56.170Z,1.10
2022-11-04T07:49:25.299Z,1.40
2022-11-04T07:51:53.755Z,1.30
2022-11-04T07:54:23.049Z,1.23
2022-11-04T07:56:51.028Z,1.40
2022-11-04T07:59:18.998Z,2.10
2022-11-04T08:01:47.023Z,1.10
2022-11-04T08:04:15.029Z,2.17
2022-11-04T08:06:42.982Z,1.83
2022-11-04T08:09:10.994Z,1.20
2022-11-04T08:11:40.433Z,1.20
2022-11-04T08:14:08.456Z,1.40
2022-11-04T08:16:36.578Z,1.83
2022-11-04T08:19:04.595Z,0.93
2022-11-04T08:21:35.052Z,1.00
2022-11-04T08:24:05.180Z,1.37
2022-11-04T08:26:33.218Z,1.67
2022-11-04T08:29:03.476Z,1.50
2022-11-04T08:31:33.567Z,1.27
2022-11-04T08:34:01.661Z,1.00
2022-11-04T08:36:32.714Z,1.30
2022-11-04T08:39:05.800Z,1.07
2022-11-04T08:41:38.880Z,0.93
2022-11-04T08:44:08.900Z,1.30
2022-11-04T08:46:39.549Z,1.00
2022-11-04T08:49:10.218Z,1.40
2022-11-04T08:51:41.898Z,1.07
2022-11-04T08:54:09.980Z,0.90
2022-11-04T08:56:40.634Z,1.13
2022-11-04T08:59:11.383Z,1.43
2022-11-04T09:01:39.576Z,1.60
2022-11-04T09:04:08.161Z,1.30
2022-11-04T09:06:40.211Z,1.30
2022-11-04T09:09:12.088Z,0.80
2022-11-04T09:11:42.599Z,1.00
2022-11-04T09:14:12.721Z,1.00
2022-11-04T09:16:42.825Z,1.00
2022-11-04T09:19:11.218Z,1.10
2022-11-04T09:21:39.222Z,1.17
2022-11-04T09:24:08.766Z,1.20
2022-11-04T09:26:36.793Z,0.90
2022-11-04T09:29:06.637Z,1.10
2022-11-04T09:31:35.960Z,1.30
2022-11-04T09:34:04.007Z,1.50
2022-11-04T09:36:32.006Z,1.20
2022-11-04T09:38:59.983Z,1.17
2022-11-04T09:42:01.324Z,1.20
2022-11-04T09:45:06.945Z,0.93
2022-11-04T09:47:33.110Z,1.13
2022-11-04T09:50:02.419Z,1.30
2022-11-04T09:52:34.089Z,0.80
2022-11-04T09:55:11.333Z,1.20
2022-11-04T09:57:39.476Z,1.67
2022-11-04T10:00:13.621Z,1.33
2022-11-04T10:02:56.055Z,0.70
2022-11-04T10:05:42.063Z,0.90
2022-11-04T10:08:36.648Z,1.17
2022-11-04T10:11:11.911Z,1.40
2022-11-04T10:13:57.171Z,0.90
2022-11-04T10:16:42.867Z,0.90
2022-11-04T10:19:40.296Z,1.00
2022-11-04T10:22:19.166Z,0.90
2022-11-04T10:24:56.908Z,1.10
2022-11-04T10:27:28.958Z,1.00
2022-11-04T10:30:01.850Z,1.10
2022-11-04T10:32:36.332Z,1.10
2022-11-04T10:35:16.479Z,1.23
2022-11-04T10:37:44.640Z,1.20
2022-11-04T10:40:22.902Z,1.00
2022-11-04T10:42:51.554Z,1.10
2022-11-04T10:45:24.573Z,0.90
2022-11-04T10:47:59.114Z,1.10
2022-11-04T10:50:32.742Z,2.80
2022-11-04T10:53:14.755Z,2.67
2022-11-04T10:55:55.295Z,2.10
2022-11-04T10:58:26.407Z,2.37
2022-11-04T11:00:55.632Z,2.40
2022-11-04T11:03:30.891Z,2.10
2022-11-04T11:06:20.850Z,2.23
2022-11-04T11:08:48.942Z,5.50
2022-11-04T11:11:22.611Z,7.50
2022-11-04T11:13:50.613Z,13.40
2022-11-04T11:16:21.634Z,15.13
2022-11-04T11:19:17.461Z,14.88
2022-11-04T11:21:49.573Z,18.60
2022-11-04T11:24:22.898Z,23.33
2022-11-04T11:26:55.113Z,23.05
2022-11-04T11:29:26.995Z,21.67
2022-11-04T11:31:57.681Z,24.00
2022-11-04T11:34:30.556Z,21.97
2022-11-04T11:37:02.978Z,22.00
2022-11-04T11:39:33.405Z,22.57
2022-11-04T11:42:06.401Z,22.00
2022-11-04T11:44:43.977Z,22.17
2022-11-04T11:47:22.625Z,19.73
2022-11-04T11:50:07.224Z,21.50
2022-11-04T11:52:38.219Z,20.80
2022-11-04T11:55:13.188Z,20.53
2022-11-04T12:01:01.002Z,22.35
2022-11-04T12:09:37.649Z,19.30
2022-11-04T12:12:37.007Z,17.57
2022-11-04T12:15:48.679Z,19.03
2022-11-04T12:18:44.615Z,16.07
2022-11-04T12:21:19.030Z,16.43
2022-11-04T12:23:54.900Z,16.53
2022-11-04T12:26:37.107Z,19.10
2022-11-04T12:29:27.371Z,17.20
2022-11-04T12:32:07.713Z,16.40
2022-11-04T12:34:51.379Z,15.43
2022-11-04T12:37:33.329Z,13.37
2022-11-04T12:40:17.900Z,11.80
2022-11-04T12:43:07.569Z,11.17
2022-11-04T12:45:49.371Z,11.03
2022-11-04T12:48:37.984Z,10.73
2022-11-04T12:51:14.145Z,10.17
2022-11-04T12:54:02.296Z,9.10
2022-11-04T12:56:38.281Z,7.37
2022-11-04T12:59:31.290Z,7.80
2022-11-04T13:02:04.205Z,7.17
2022-11-04T13:04:39.899Z,7.10
2022-11-04T13:07:15.291Z,6.70
2022-11-04T13:09:49.814Z,5.70
2022-11-04T13:12:21.255Z,5.70
2022-11-04T13:14:55.148Z,4.93
2022-11-04T13:17:28.227Z,5.50
2022-11-04T13:20:01.396Z,5.63
2022-11-04T13:22:35.605Z,4.50
2022-11-04T13:25:07.641Z,5.07
2022-11-04T13:27:39.476Z,4.40
2022-11-04T13:30:22.876Z,4.70
2022-11-04T13:32:56.690Z,5.13
2022-11-04T13:35:31.697Z,4.63
2022-11-04T13:38:05.587Z,3.87
2022-11-04T13:40:38.027Z,5.10
2022-11-04T13:43:39.977Z,3.33
2022-11-04T13:46:24.507Z,4.30
2022-11-04T13:49:00.054Z,3.50
2022-11-04T13:51:38.860Z,3.90
2022-11-04T13:54:08.549Z,3.30
2022-11-04T13:56:40.118Z,3.00
2022-11-04T13:59:21.087Z,3.10
2022-11-04T14:01:50.640Z,2.70
2022-11-04T14:04:38.407Z,3.23
2022-11-04T14:07:10.515Z,3.30
2022-11-04T14:09:55.016Z,2.70
2022-11-04T14:12:40.659Z,3.17
2022-11-04T14:15:16.970Z,3.60
2022-11-04T14:18:02.955Z,3.67
2022-11-04T14:20:34.749Z,3.07
2022-11-04T14:23:05.060Z,3.20
2022-11-04T14:25:37.690Z,3.37
2022-11-04T14:28:27.191Z,2.63
2022-11-04T14:30:57.470Z,2.87
2022-11-04T14:33:53.769Z,2.87
2022-11-04T14:36:34.439Z,2.47
2022-11-04T14:39:08.394Z,2.77
2022-11-04T14:42:00.249Z,2.40
2022-11-04T14:44:37.711Z,2.30
2022-11-04T14:47:18.599Z,2.27
2022-11-04T14:49:50.872Z,2.50
2022-11-04T14:52:25.723Z,2.40
2022-11-04T14:54:59.430Z,2.00
2022-11-04T14:57:37.338Z,2.67
2022-11-04T15:00:24.718Z,3.13
2022-11-04T15:03:04.991Z,2.03
2022-11-04T15:05:36.363Z,2.55
2022-11-04T15:08:29.510Z,2.97
2022-11-04T15:11:06.864Z,2.10
2022-11-04T15:13:37.083Z,2.97
2022-11-04T15:16:12.057Z,2.37
2022-11-04T15:18:40.950Z,2.30
2022-11-04T15:21:11.180Z,2.10
2022-11-04T15:23:43.778Z,2.53
2022-11-04T15:26:29.756Z,2.57
2022-11-04T15:29:00.156Z,2.07
2022-11-04T15:31:30.050Z,2.50
2022-11-04T15:34:00.524Z,2.10
2022-11-04T15:36:33.149Z,2.23
2022-11-04T15:39:06.897Z,2.53
2022-11-04T15:41:56.954Z,1.87
2022-11-04T15:44:27.897Z,1.83
2022-11-04T15:46:58.716Z,2.20
2022-11-04T15:49:29.097Z,2.20
2022-11-04T15:52:02.684Z,2.20
2022-11-04T15:54:34.308Z,2.20
2022-11-04T15:57:12.518Z,2.73
2022-11-04T15:59:47.403Z,2.47
2022-11-04T16:02:25.984Z,2.20
2022-11-04T16:05:05.605Z,2.50
2022-11-04T16:07:39.316Z,2.13
2022-11-04T16:10:29.982Z,2.80
2022-11-04T16:13:00.051Z,2.70
2022-11-04T16:15:37.035Z,3.47
2022-11-04T16:18:07.453Z,1.80
2022-11-04T16:20:36.417Z,2.07
2022-11-04T16:23:05.923Z,2.07
2022-11-04T16:25:36.393Z,2.20
2022-11-04T16:28:04.844Z,2.70
2022-11-04T16:30:32.998Z,3.63
2022-11-04T16:33:11.834Z,2.10
2022-11-04T16:35:42.697Z,2.70
2022-11-04T16:38:12.110Z,2.90
2022-11-04T16:40:40.257Z,2.90
2022-11-04T16:43:10.402Z,2.40
2022-11-04T16:45:39.014Z,3.10
2022-11-04T16:48:07.927Z,2.80
2022-11-04T16:50:35.934Z,2.80
2022-11-04T16:53:04.163Z,2.20
2022-11-04T16:55:33.567Z,2.83
2022-11-04T16:58:04.573Z,2.67
2022-11-04T17:00:33.728Z,2.63
2022-11-04T17:03:02.375Z,2.70
2022-11-04T17:05:30.359Z,2.23
2022-11-04T17:08:04.411Z,3.37
2022-11-04T17:10:36.087Z,2.73
2022-11-04T17:13:04.105Z,3.00
2022-11-04T17:15:32.122Z,2.67
2022-11-04T17:18:00.101Z,3.00
2022-11-04T17:20:29.800Z,2.87
2022-11-04T17:22:57.761Z,2.40
2022-11-04T17:25:29.975Z,2.83
2022-11-04T17:27:59.342Z,2.90
2022-11-04T17:30:27.330Z,2.50
2022-11-04T17:32:55.317Z,3.20
2022-11-04T17:35:23.331Z,2.13
2022-11-04T17:37:53.611Z,2.70
2022-11-04T17:40:24.161Z,2.57
2022-11-04T17:43:12.264Z,2.67
2022-11-04T17:45:42.923Z,3.17
2022-11-04T17:48:14.008Z,3.30
2022-11-04T17:50:42.199Z,2.30
2022-11-04T17:53:10.625Z,2.70
2022-11-04T17:55:41.125Z,2.90
2022-11-04T17:58:09.552Z,3.47
2022-11-04T18:00:37.706Z,3.03
2022-11-04T18:03:08.696Z,3.07
2022-11-04T18:05:36.973Z,3.40
2022-11-04T18:08:05.382Z,3.27
2022-11-04T18:10:33.346Z,3.70
2022-11-04T18:13:01.303Z,2.47
2022-11-04T18:15:30.219Z,2.73
2022-11-04T18:17:58.138Z,3.63
2022-11-04T18:20:27.519Z,2.83
2022-11-04T18:22:55.520Z,3.33
2022-11-04T18:25:23.522Z,3.27
2022-11-04T18:27:51.495Z,2.70
2022-11-04T18:30:19.667Z,3.13
2022-11-04T18:32:47.678Z,2.90
2022-11-04T18:35:15.666Z,3.57
2022-11-04T18:37:47.249Z,2.70
2022-11-04T18:40:16.379Z,2.73
2022-11-04T18:42:44.519Z,3.27
2022-11-04T18:45:12.831Z,2.80
2022-11-04T18:47:40.789Z,3.13
2022-11-04T18:50:10.236Z,3.03
2022-11-04T18:52:38.218Z,3.07
2022-11-04T18:55:09.459Z,3.00
2022-11-04T18:57:37.498Z,3.27
2022-11-04T19:00:10.508Z,4.20
2022-11-04T19:02:40.912Z,7.13
2022-11-04T19:05:10.902Z,5.83
2022-11-04T19:07:39.166Z,5.37
2022-11-04T19:10:09.587Z,6.60
2022-11-04T19:12:55.228Z,5.60
2022-11-04T19:15:23.290Z,5.63
2022-11-04T19:17:51.263Z,5.90
2022-11-04T19:20:19.598Z,4.30
2022-11-04T19:22:47.553Z,4.70
2022-11-04T19:25:17.072Z,6.20
2022-11-04T19:27:45.024Z,4.90
2022-11-04T19:30:14.418Z,4.43
2022-11-04T19:32:42.362Z,4.50
2022-11-04T19:35:10.393Z,4.80
2022-11-04T19:37:38.561Z,4.90
2022-11-04T19:40:10.825Z,4.73
2022-11-04T19:42:57.940Z,4.63
2022-11-04T19:45:26.138Z,5.77
2022-11-04T19:47:54.262Z,4.13
2022-11-04T19:50:22.937Z,3.70
2022-11-04T19:52:50.947Z,3.57
2022-11-04T19:55:19.583Z,4.00
2022-11-04T19:57:49.023Z,4.00
2022-11-04T20:00:17.283Z,4.97
2022-11-04T20:02:45.410Z,4.40
2022-11-04T20:05:13.479Z,4.50
2022-11-04T20:07:41.604Z,4.60
2022-11-04T20:10:10.694Z,3.77
2022-11-04T20:12:56.419Z,5.00
2022-11-04T20:15:26.402Z,3.67
2022-11-04T20:17:54.396Z,3.60
2022-11-04T20:20:22.381Z,5.03
2022-11-04T20:22:50.315Z,3.40
2022-11-04T20:25:18.312Z,4.10
2022-11-04T20:27:46.274Z,3.90
2022-11-04T20:30:14.394Z,4.27
2022-11-04T20:32:43.682Z,4.27
2022-11-04T20:35:12.428Z,3.43
2022-11-04T20:37:40.377Z,3.87
2022-11-04T20:40:09.871Z,4.10
2022-11-04T20:42:37.884Z,3.27
2022-11-04T20:45:07.276Z,3.10
2022-11-04T20:47:36.415Z,3.80
2022-11-04T20:50:07.218Z,3.50
2022-11-04T20:52:36.835Z,3.80
2022-11-04T20:55:05.319Z,3.30
2022-11-04T20:57:33.622Z,3.37
2022-11-04T21:00:01.720Z,4.00
2022-11-04T21:02:29.782Z,2.83
2022-11-04T21:04:57.835Z,3.03
2022-11-04T21:07:27.143Z,4.20
2022-11-04T21:09:55.099Z,2.93
2022-11-04T21:12:23.071Z,3.80
2022-11-04T21:14:51.024Z,3.07
2022-11-04T21:17:18.955Z,3.23
2022-11-04T21:19:46.875Z,3.77
2022-11-04T21:22:14.865Z,3.33
2022-11-04T21:24:44.158Z,3.83
2022-11-04T21:27:12.107Z,3.30
2022-11-04T21:29:40.082Z,2.50
2022-11-04T21:32:08.071Z,2.80
2022-11-04T21:34:36.163Z,3.07
2022-11-04T21:37:04.114Z,3.00
2022-11-04T21:39:32.103Z,3.10
2022-11-04T21:42:01.438Z,2.80
2022-11-04T21:44:29.959Z,3.00
2022-11-04T21:46:57.926Z,3.47
2022-11-04T21:49:25.878Z,3.33
2022-11-04T21:51:53.831Z,3.03
2022-11-04T21:54:21.801Z,2.90
2022-11-04T21:56:51.606Z,3.23
2022-11-04T21:59:20.986Z,3.50
2022-11-04T22:01:48.987Z,3.93
2022-11-04T22:04:17.067Z,2.87
2022-11-04T22:06:45.325Z,3.17
2022-11-04T22:09:13.587Z,3.30
2022-11-04T22:11:41.578Z,3.03
2022-11-04T22:14:11.710Z,3.00
2022-11-04T22:16:41.278Z,3.00
2022-11-04T22:19:13.302Z,2.97
2022-11-04T22:21:43.589Z,3.23
2022-11-04T22:24:12.581Z,3.13
2022-11-04T22:26:41.235Z,3.40
2022-11-04T22:29:09.828Z,3.10
2022-11-04T22:31:41.459Z,3.10
2022-11-04T22:34:09.634Z,2.97
2022-11-04T22:36:37.860Z,2.87
2022-11-04T22:39:08.302Z,3.13
2022-11-04T22:41:38.592Z,3.30
2022-11-04T22:44:06.645Z,2.67
2022-11-04T22:46:35.527Z,2.57
2022-11-04T22:49:04.848Z,2.60
2022-11-04T22:51:32.795Z,2.30
2022-11-04T22:54:07.530Z,3.30
2022-11-04T22:56:36.204Z,3.30
2022-11-04T22:59:04.463Z,2.80
2022-11-04T23:01:33.739Z,2.73
2022-11-04T23:04:02.467Z,3.17
2022-11-04T23:06:31.924Z,2.80
2022-11-04T23:09:00.985Z,2.93
2022-11-04T23:11:47.810Z,3.00
2022-11-04T23:14:35.511Z,2.93
2022-11-04T23:17:22.133Z,3.20
2022-11-04T23:19:51.592Z,2.60
2022-11-04T23:22:38.412Z,3.10
2022-11-04T23:25:09.458Z,2.93
2022-11-04T23:27:57.998Z,3.00
2022-11-04T23:30:28.464Z,2.63
2022-11-04T23:32:59.304Z,3.87
2022-11-04T23:35:48.458Z,2.63
2022-11-04T23:38:18.232Z,2.80
2022-11-04T23:41:07.632Z,3.03
2022-11-04T23:43:36.002Z,2.70
2022-11-04T23:46:21.571Z,2.07
2022-11-04T23:49:07.020Z,2.50
2022-11-04T23:51:52.596Z,2.60
2022-11-04T23:54:39.387Z,2.33
2022-11-04T23:57:31.536Z,2.33
